Aviation Digital Data Service (ADDS)

Output produced by METARs form (0502 UTC 21 September 2017)
found at http://www.aviationweather.gov/adds/metars/
 
FBFT 210400Z 08004KT CAVOK 16/10 Q1025
TAF FBFT 210300Z 2106/2115 08013KT CAVOK
       
FBKE 210400Z 11009KT CAVOK 23/10 Q1021
TAF FBKE 210300Z 2106/2115 08014KT CAVOK
       
FBMN 210400Z 09010KT CAVOK 22/10 Q1021
TAF FBMN 210300Z 2106/2115 05014KT CAVOK
       
FBSP 210400Z 12005KT CAVOK 17/13 Q1025
TAF FBSP 210300Z 2106/2115 08012KT CAVOK
       
FBSK 210400Z 08008KT CAVOK 18/11 Q1025 NOSIG
TAF FBSK 210300Z 2106/2212 04013KT CAVOK
       
FBFT 210400Z 08004KT CAVOK 16/10 Q1025
TAF FBFT 210300Z 2106/2115 08013KT CAVOK